createdAt,value
2019-03-17T00:01:26.429Z,24.83
2019-03-17T00:03:54.620Z,16.53
2019-03-17T00:06:22.826Z,21.37
2019-03-17T00:08:51.018Z,21.27
2019-03-17T00:11:19.226Z,24.97
2019-03-17T00:13:47.415Z,26.20
2019-03-17T00:16:15.612Z,12.20
2019-03-17T00:18:43.805Z,24.23
2019-03-17T00:21:12.073Z,20.53
2019-03-17T00:23:40.269Z,15.37
2019-03-17T00:26:08.475Z,20.47
2019-03-17T00:28:36.665Z,21.90
2019-03-17T00:31:04.868Z,18.40
2019-03-17T00:33:33.071Z,24.40
2019-03-17T00:36:01.281Z,17.40
2019-03-17T00:38:29.470Z,18.53
2019-03-17T00:40:57.675Z,18.40
2019-03-17T00:43:25.866Z,20.67
2019-03-17T00:45:54.070Z,16.33
2019-03-17T00:48:23.888Z,18.87
2019-03-17T00:50:52.090Z,19.23
2019-03-17T00:53:20.309Z,17.27
2019-03-17T00:55:48.499Z,15.80
2019-03-17T00:58:18.316Z,24.77
2019-03-17T01:00:46.528Z,14.53
2019-03-17T01:03:14.712Z,18.40
2019-03-17T01:05:43.006Z,14.13
2019-03-17T01:08:11.190Z,11.80
2019-03-17T01:10:39.380Z,15.53
2019-03-17T01:13:07.588Z,20.17
2019-03-17T01:15:35.773Z,14.20
2019-03-17T01:18:03.976Z,13.47
2019-03-17T01:20:32.165Z,17.33
2019-03-17T01:23:00.359Z,17.60
2019-03-17T01:25:28.562Z,20.63
2019-03-17T01:27:56.749Z,23.50
2019-03-17T01:30:25.694Z,15.03
2019-03-17T01:32:53.962Z,20.63
2019-03-17T01:35:22.172Z,20.13
2019-03-17T01:37:51.549Z,15.37
2019-03-17T01:40:19.749Z,19.90
2019-03-17T01:42:47.937Z,19.43
2019-03-17T01:45:16.142Z,15.17
2019-03-17T01:47:44.329Z,19.93
2019-03-17T01:50:13.712Z,16.20
2019-03-17T01:52:41.913Z,17.93
2019-03-17T01:55:11.385Z,20.33
2019-03-17T01:57:39.848Z,17.90
2019-03-17T02:00:11.093Z,15.17
2019-03-17T02:02:39.291Z,18.70
2019-03-17T02:05:08.009Z,26.03
2019-03-17T02:07:36.219Z,25.30
2019-03-17T02:10:05.547Z,20.50
2019-03-17T02:12:33.755Z,19.23
2019-03-17T02:15:01.944Z,22.90
2019-03-17T02:17:30.156Z,18.93
2019-03-17T02:19:58.345Z,21.37
2019-03-17T02:22:26.789Z,18.70
2019-03-17T02:24:54.976Z,24.63
2019-03-17T02:27:23.182Z,23.33
2019-03-17T02:29:51.374Z,20.43
2019-03-17T02:32:21.207Z,21.67
2019-03-17T02:34:49.397Z,29.10
2019-03-17T02:37:17.595Z,20.20
2019-03-17T02:39:45.792Z,20.53
2019-03-17T02:42:14.014Z,22.40
2019-03-17T02:44:43.824Z,20.00
2019-03-17T02:47:12.013Z,19.37
2019-03-17T02:49:40.223Z,24.50
2019-03-17T02:52:08.418Z,18.73
2019-03-17T02:54:36.686Z,31.37
2019-03-17T02:57:04.817Z,20.53
2019-03-17T02:59:33.006Z,24.13
2019-03-17T03:02:01.212Z,21.60
2019-03-17T03:04:29.402Z,21.40
2019-03-17T03:06:57.594Z,21.60
2019-03-17T03:09:25.813Z,26.23
2019-03-17T03:11:53.995Z,18.73
2019-03-17T03:14:22.210Z,29.40
2019-03-17T03:16:50.415Z,21.20
2019-03-17T03:19:18.600Z,20.93
2019-03-17T03:21:46.800Z,17.40
2019-03-17T03:24:14.982Z,17.37
2019-03-17T03:26:44.318Z,22.93
2019-03-17T03:29:12.508Z,21.07
2019-03-17T03:31:40.775Z,25.17
2019-03-17T03:34:08.997Z,19.80
2019-03-17T03:36:37.191Z,23.73
2019-03-17T03:39:07.438Z,19.40
2019-03-17T03:41:35.712Z,20.37
2019-03-17T03:44:03.906Z,23.60
2019-03-17T03:46:32.109Z,23.77
2019-03-17T03:49:00.305Z,21.07
2019-03-17T03:51:28.503Z,24.17
2019-03-17T03:53:56.708Z,26.90
2019-03-17T03:56:24.918Z,22.53
2019-03-17T03:58:54.321Z,20.43
2019-03-17T04:01:22.524Z,24.77
2019-03-17T04:03:50.715Z,28.37
2019-03-17T04:06:26.333Z,24.43
2019-03-17T04:08:48.839Z,19.33
2019-03-17T04:11:17.128Z,27.67
2019-03-17T04:13:45.319Z,25.13
2019-03-17T04:16:13.535Z,34.67
2019-03-17T04:18:41.728Z,27.13
2019-03-17T04:21:09.974Z,21.47
2019-03-17T04:23:38.122Z,24.17
2019-03-17T04:26:06.589Z,24.20
2019-03-17T04:28:34.794Z,21.97
2019-03-17T04:31:02.982Z,25.17
2019-03-17T04:33:31.177Z,31.57
2019-03-17T04:35:59.389Z,27.90
2019-03-17T04:38:27.575Z,27.47
2019-03-17T04:40:55.780Z,27.30
2019-03-17T04:43:23.980Z,24.50
2019-03-17T04:45:52.179Z,25.10
2019-03-17T04:48:20.375Z,24.20
2019-03-17T04:50:48.580Z,24.30
2019-03-17T04:53:16.791Z,22.80
2019-03-17T04:55:44.990Z,26.37
2019-03-17T04:58:13.181Z,19.47
2019-03-17T05:00:41.386Z,18.77
2019-03-17T05:03:09.582Z,17.17
2019-03-17T05:05:37.800Z,21.77
2019-03-17T05:08:07.165Z,20.00
2019-03-17T05:10:35.383Z,18.97
2019-03-17T05:13:03.583Z,19.37
2019-03-17T05:15:31.803Z,18.17
2019-03-17T05:18:00.078Z,15.87
2019-03-17T05:20:28.284Z,19.03
2019-03-17T05:22:56.485Z,21.07
2019-03-17T05:25:24.700Z,16.87
2019-03-17T05:27:53.631Z,16.73
2019-03-17T05:30:23.468Z,17.53
2019-03-17T05:32:51.663Z,19.07
2019-03-17T05:35:19.882Z,17.23
2019-03-17T05:37:48.104Z,15.70
2019-03-17T05:40:16.275Z,23.20
2019-03-17T05:42:44.472Z,17.27
2019-03-17T05:45:12.677Z,18.17
2019-03-17T05:47:40.877Z,18.10
2019-03-17T05:50:09.625Z,19.10
2019-03-17T05:52:37.813Z,8.27
2019-03-17T05:55:08.512Z,7.00
2019-03-17T05:57:36.708Z,10.33
2019-03-17T06:00:10.590Z,10.50
2019-03-17T06:02:38.785Z,12.00
2019-03-17T06:05:07.824Z,10.83
2019-03-17T06:07:36.012Z,8.60
2019-03-17T06:10:04.681Z,7.10
2019-03-17T06:12:32.895Z,8.33
2019-03-17T06:15:01.092Z,12.03
2019-03-17T06:17:29.275Z,10.23
2019-03-17T06:19:57.478Z,14.03
2019-03-17T06:22:25.687Z,18.47
2019-03-17T06:24:53.885Z,20.03
2019-03-17T06:27:23.128Z,15.50
2019-03-17T06:29:51.318Z,12.63
2019-03-17T06:32:19.527Z,13.93
2019-03-17T06:34:47.719Z,12.30
2019-03-17T06:37:16.000Z,10.17
2019-03-17T06:39:45.820Z,9.63
2019-03-17T06:42:14.022Z,17.50
2019-03-17T06:44:42.221Z,15.67
2019-03-17T06:47:11.756Z,12.00
2019-03-17T06:49:39.957Z,17.57
2019-03-17T06:52:09.782Z,12.67
2019-03-17T06:54:37.974Z,15.60
2019-03-17T06:57:06.254Z,12.90
2019-03-17T06:59:34.909Z,10.97
2019-03-17T07:02:03.577Z,16.07
2019-03-17T07:04:31.764Z,12.83
2019-03-17T07:06:59.964Z,7.70
2019-03-17T07:09:28.157Z,11.37
2019-03-17T07:11:56.363Z,20.27
2019-03-17T07:14:24.629Z,15.63
2019-03-17T07:16:53.950Z,20.87
2019-03-17T07:19:23.852Z,15.83
2019-03-17T07:21:52.053Z,21.87
2019-03-17T07:24:20.243Z,14.17
2019-03-17T07:26:48.456Z,19.73
2019-03-17T07:29:16.646Z,21.93
2019-03-17T07:31:44.859Z,15.80
2019-03-17T07:34:14.097Z,16.27
2019-03-17T07:36:42.299Z,14.53
2019-03-17T07:39:12.034Z,22.47
2019-03-17T07:41:40.574Z,23.67
2019-03-17T07:44:08.769Z,21.77
2019-03-17T07:46:36.966Z,14.37
2019-03-17T07:49:06.344Z,30.23
2019-03-17T07:51:34.538Z,22.53
2019-03-17T07:54:02.731Z,24.97
2019-03-17T07:56:30.942Z,27.10
2019-03-17T07:58:59.133Z,27.07
2019-03-17T08:01:27.322Z,27.07
2019-03-17T08:03:55.529Z,30.37
2019-03-17T08:06:23.719Z,23.10
2019-03-17T08:08:51.926Z,22.93
2019-03-17T08:11:21.978Z,25.17
2019-03-17T08:13:51.311Z,19.03
2019-03-17T08:16:19.973Z,22.67
2019-03-17T08:18:48.177Z,25.80
2019-03-17T08:21:16.364Z,16.83
2019-03-17T08:23:44.575Z,11.77
2019-03-17T08:26:13.235Z,12.50
2019-03-17T08:28:41.429Z,19.80
2019-03-17T08:31:11.114Z,31.50
2019-03-17T08:33:39.302Z,26.90
2019-03-17T08:36:07.504Z,30.70
2019-03-17T08:38:35.689Z,20.33
2019-03-17T08:41:03.897Z,27.90
2019-03-17T08:43:32.089Z,26.43
2019-03-17T08:46:00.295Z,28.17
2019-03-17T08:48:28.487Z,28.37
2019-03-17T08:50:56.709Z,29.83
2019-03-17T08:53:24.902Z,27.27
2019-03-17T08:55:54.734Z,26.40
2019-03-17T08:58:23.941Z,27.40
2019-03-17T09:00:53.579Z,25.53
2019-03-17T09:03:23.422Z,22.10
2019-03-17T09:05:53.239Z,19.73
2019-03-17T09:08:33.846Z,21.33
2019-03-17T09:10:52.069Z,20.20
2019-03-17T09:13:20.264Z,16.47
2019-03-17T09:15:48.450Z,21.33
2019-03-17T09:18:16.655Z,21.67
2019-03-17T09:20:44.846Z,20.10
2019-03-17T09:23:13.051Z,26.00
2019-03-17T09:25:41.239Z,24.07
2019-03-17T09:28:09.692Z,18.07
2019-03-17T09:30:37.882Z,19.63
2019-03-17T09:33:06.089Z,16.10
2019-03-17T09:35:34.281Z,17.30
2019-03-17T09:38:02.490Z,17.37
2019-03-17T09:40:30.684Z,13.13
2019-03-17T09:42:58.898Z,9.87
2019-03-17T09:45:27.099Z,16.37
2019-03-17T09:47:55.298Z,12.77
2019-03-17T09:50:24.538Z,12.20
2019-03-17T09:52:53.195Z,12.00
2019-03-17T09:55:21.396Z,12.07
2019-03-17T09:57:51.213Z,14.83
2019-03-17T10:00:20.850Z,16.60
2019-03-17T10:02:49.052Z,12.30
2019-03-17T10:05:17.273Z,13.80
2019-03-17T10:07:45.457Z,23.60
2019-03-17T10:10:21.847Z,15.07
2019-03-17T10:12:50.043Z,11.07
2019-03-17T10:15:21.384Z,19.13
2019-03-17T10:17:49.819Z,13.90
2019-03-17T10:20:18.856Z,9.40
2019-03-17T10:22:47.043Z,14.10
2019-03-17T10:25:15.245Z,12.67
2019-03-17T10:27:43.517Z,13.20
2019-03-17T10:30:19.732Z,7.43
2019-03-17T10:32:47.919Z,7.43
2019-03-17T10:35:17.247Z,10.57
2019-03-17T10:37:45.440Z,14.30
2019-03-17T10:40:17.665Z,13.40
2019-03-17T10:42:45.861Z,12.63
2019-03-17T10:45:15.138Z,9.67
2019-03-17T10:47:43.306Z,12.83
2019-03-17T10:50:16.505Z,14.73
2019-03-17T10:52:44.700Z,12.97
2019-03-17T10:55:12.897Z,14.87
2019-03-17T10:57:41.090Z,8.83
2019-03-17T11:00:18.016Z,10.00
2019-03-17T11:02:46.201Z,16.80
2019-03-17T11:05:14.653Z,10.07
2019-03-17T11:07:42.860Z,12.07
2019-03-17T11:10:11.889Z,12.23
2019-03-17T11:12:40.157Z,12.97
2019-03-17T11:15:15.999Z,13.73
2019-03-17T11:17:44.205Z,11.40
2019-03-17T11:20:12.936Z,16.27
2019-03-17T11:22:41.130Z,14.27
2019-03-17T11:25:12.716Z,17.67
2019-03-17T11:27:40.917Z,10.20
2019-03-17T11:30:14.716Z,7.70
2019-03-17T11:32:43.956Z,17.23
2019-03-17T11:35:12.150Z,10.00
2019-03-17T11:37:40.355Z,9.57
2019-03-17T11:40:11.800Z,16.93
2019-03-17T11:42:41.304Z,7.13
2019-03-17T11:45:13.965Z,9.00
2019-03-17T11:47:43.674Z,5.67
2019-03-17T11:50:13.956Z,8.67
2019-03-17T11:52:42.160Z,14.70
2019-03-17T11:55:11.590Z,16.93
2019-03-17T11:57:39.791Z,8.87
2019-03-17T12:00:16.588Z,6.37
2019-03-17T12:02:46.416Z,12.07
2019-03-17T12:05:14.606Z,12.77
2019-03-17T12:07:43.277Z,11.73
2019-03-17T12:10:16.496Z,18.77
2019-03-17T12:12:44.701Z,17.93
2019-03-17T12:15:18.530Z,13.10
2019-03-17T12:17:46.726Z,12.93
2019-03-17T12:20:15.268Z,21.83
2019-03-17T12:22:43.461Z,16.87
2019-03-17T12:25:15.818Z,22.10
2019-03-17T12:27:44.010Z,14.10
2019-03-17T12:30:23.734Z,10.00
2019-03-17T12:32:52.559Z,15.90
2019-03-17T12:35:21.306Z,13.63
2019-03-17T12:37:49.511Z,14.13
2019-03-17T12:40:17.705Z,10.03
2019-03-17T12:42:45.902Z,19.40
2019-03-17T12:45:14.279Z,12.50
2019-03-17T12:47:42.468Z,16.10
2019-03-17T12:50:20.708Z,22.37
2019-03-17T12:52:48.956Z,18.27
2019-03-17T12:55:17.105Z,13.83
2019-03-17T12:57:45.300Z,16.63
2019-03-17T13:00:21.549Z,11.13
2019-03-17T13:02:49.740Z,17.77
2019-03-17T13:05:19.570Z,13.70
2019-03-17T13:07:47.769Z,18.37
2019-03-17T13:10:18.807Z,15.07
2019-03-17T13:12:46.996Z,14.90
2019-03-17T13:15:15.204Z,11.07
2019-03-17T13:17:43.402Z,16.67
2019-03-17T13:20:15.098Z,15.17
2019-03-17T13:22:44.578Z,12.13
2019-03-17T13:25:14.412Z,10.70
2019-03-17T13:27:42.603Z,16.90
2019-03-17T13:30:14.783Z,10.37
2019-03-17T13:32:44.600Z,12.53
2019-03-17T13:35:13.051Z,12.67
2019-03-17T13:37:41.255Z,17.73
2019-03-17T13:40:28.771Z,13.53
2019-03-17T13:42:49.116Z,20.57
2019-03-17T13:45:17.293Z,13.37
2019-03-17T13:47:45.496Z,14.07
2019-03-17T13:50:15.027Z,12.23
2019-03-17T13:52:43.228Z,15.37
2019-03-17T13:55:12.314Z,9.97
2019-03-17T13:57:42.826Z,13.47
2019-03-17T14:00:14.814Z,14.27
2019-03-17T14:02:43.491Z,10.33
2019-03-17T14:05:12.215Z,14.17
2019-03-17T14:07:40.869Z,11.90
2019-03-17T14:10:17.161Z,5.10
2019-03-17T14:12:45.356Z,12.83
2019-03-17T14:15:15.302Z,14.87
2019-03-17T14:17:44.918Z,12.07
2019-03-17T14:20:21.042Z,14.07
2019-03-17T14:22:49.744Z,16.57
2019-03-17T14:25:23.748Z,13.97
2019-03-17T14:27:51.957Z,16.43
2019-03-17T14:30:20.150Z,16.40
2019-03-17T14:32:48.420Z,15.53
2019-03-17T14:35:16.623Z,17.87
2019-03-17T14:37:44.811Z,14.73
2019-03-17T14:40:14.556Z,15.97
2019-03-17T14:42:43.028Z,14.00
2019-03-17T14:45:13.357Z,13.83
2019-03-17T14:47:41.553Z,16.03
2019-03-17T14:50:12.960Z,15.23
2019-03-17T14:52:41.161Z,11.37
2019-03-17T14:55:09.348Z,11.73
2019-03-17T14:57:37.552Z,10.93
2019-03-17T15:00:11.629Z,15.80
2019-03-17T15:02:39.843Z,10.53
2019-03-17T15:05:09.076Z,20.37
2019-03-17T15:07:37.325Z,20.43
2019-03-17T15:10:13.921Z,15.10
2019-03-17T15:12:42.110Z,16.00
2019-03-17T15:15:18.817Z,12.03
2019-03-17T15:17:47.577Z,14.17
2019-03-17T15:20:18.178Z,13.47
2019-03-17T15:22:46.375Z,16.17
2019-03-17T15:25:14.576Z,20.60
2019-03-17T15:27:42.766Z,13.03
2019-03-17T15:30:30.167Z,14.90
2019-03-17T15:32:58.360Z,12.20
2019-03-17T15:35:26.565Z,12.57
2019-03-17T15:37:54.751Z,16.13
2019-03-17T15:40:22.951Z,12.63
2019-03-17T15:42:51.135Z,17.07
2019-03-17T15:45:21.837Z,18.00
2019-03-17T15:47:50.050Z,7.57
2019-03-17T15:50:20.337Z,18.77
2019-03-17T15:52:48.722Z,20.93
2019-03-17T15:55:17.350Z,14.70
2019-03-17T15:57:45.552Z,18.07
2019-03-17T16:00:24.725Z,14.70
2019-03-17T16:02:46.939Z,13.40
2019-03-17T16:05:15.145Z,15.90
2019-03-17T16:07:43.361Z,11.37
2019-03-17T16:10:26.589Z,11.27
2019-03-17T16:12:54.790Z,6.53
2019-03-17T16:15:22.989Z,11.77
2019-03-17T16:17:51.181Z,10.27
2019-03-17T16:20:23.189Z,10.83
2019-03-17T16:22:51.378Z,12.57
2019-03-17T16:25:21.886Z,7.93
2019-03-17T16:27:50.341Z,11.53
2019-03-17T16:30:23.464Z,20.03
2019-03-17T16:32:51.681Z,13.20
2019-03-17T16:35:19.880Z,24.93
2019-03-17T16:37:48.085Z,15.77
2019-03-17T16:40:18.875Z,15.80
2019-03-17T16:42:47.088Z,19.00
2019-03-17T16:45:16.415Z,15.20
2019-03-17T16:47:44.620Z,15.30
2019-03-17T16:50:16.980Z,18.10
2019-03-17T16:52:45.183Z,18.67
2019-03-17T16:55:13.373Z,20.03
2019-03-17T16:57:41.647Z,12.77
2019-03-17T17:00:25.196Z,22.77
2019-03-17T17:02:53.492Z,20.97
2019-03-17T17:05:22.499Z,18.47
2019-03-17T17:07:50.715Z,17.83
2019-03-17T17:10:23.950Z,15.13
2019-03-17T17:12:52.148Z,17.17
2019-03-17T17:15:33.122Z,15.03
2019-03-17T17:18:01.328Z,20.43
2019-03-17T17:20:33.437Z,20.97
2019-03-17T17:23:01.644Z,15.70
2019-03-17T17:25:29.830Z,19.37
2019-03-17T17:27:58.402Z,17.07
2019-03-17T17:30:26.594Z,17.60
2019-03-17T17:32:54.818Z,14.67
2019-03-17T17:35:23.008Z,17.47
2019-03-17T17:37:51.207Z,15.00
2019-03-17T17:40:22.652Z,17.73
2019-03-17T17:42:50.868Z,26.67
2019-03-17T17:45:24.048Z,23.50
2019-03-17T17:47:52.248Z,22.07
2019-03-17T17:50:28.105Z,12.33
2019-03-17T17:52:56.974Z,24.67
2019-03-17T17:55:26.266Z,19.13
2019-03-17T17:57:54.481Z,19.40
2019-03-17T18:00:24.314Z,16.27
2019-03-17T18:02:52.546Z,16.40
2019-03-17T18:05:20.792Z,24.93
2019-03-17T18:07:49.968Z,18.23
2019-03-17T18:10:18.687Z,28.20
2019-03-17T18:12:46.954Z,27.87
2019-03-17T18:15:18.048Z,25.17
2019-03-17T18:17:46.255Z,34.33
2019-03-17T18:20:14.453Z,21.13
2019-03-17T18:22:42.651Z,23.60
2019-03-17T18:25:13.182Z,17.37
2019-03-17T18:27:41.395Z,27.83
2019-03-17T18:30:12.225Z,19.40
2019-03-17T18:32:40.414Z,13.20
2019-03-17T18:35:09.554Z,29.50
2019-03-17T18:37:37.762Z,18.40
2019-03-17T18:40:08.993Z,22.00
2019-03-17T18:42:37.200Z,22.03
2019-03-17T18:45:24.944Z,19.10
2019-03-17T18:47:53.146Z,19.87
2019-03-17T18:50:21.441Z,15.37
2019-03-17T18:52:49.881Z,13.70
2019-03-17T18:55:18.267Z,17.10
2019-03-17T18:57:46.483Z,19.73
2019-03-17T19:00:19.212Z,20.43
2019-03-17T19:02:48.897Z,16.93
2019-03-17T19:05:20.029Z,21.40
2019-03-17T19:07:47.407Z,16.80
2019-03-17T19:10:17.755Z,16.80
2019-03-17T19:12:46.423Z,21.07
2019-03-17T19:15:21.037Z,22.00
2019-03-17T19:17:49.257Z,27.20
2019-03-17T19:20:19.639Z,19.77
2019-03-17T19:22:47.846Z,17.67
2019-03-17T19:25:19.626Z,18.40
2019-03-17T19:27:47.836Z,16.90
2019-03-17T19:30:22.639Z,24.37
2019-03-17T19:32:50.808Z,27.10
2019-03-17T19:35:19.003Z,20.90
2019-03-17T19:37:47.209Z,30.57
2019-03-17T19:40:19.153Z,23.00
2019-03-17T19:42:58.112Z,25.93
2019-03-17T19:45:17.272Z,22.97
2019-03-17T19:47:45.473Z,21.93
2019-03-17T19:50:20.933Z,16.00
2019-03-17T19:52:49.129Z,19.80
2019-03-17T19:55:17.322Z,26.93
2019-03-17T19:57:46.358Z,23.53
2019-03-17T20:00:18.245Z,27.90
2019-03-17T20:02:47.699Z,23.30
2019-03-17T20:05:16.125Z,19.97
2019-03-17T20:07:44.570Z,19.37
2019-03-17T20:10:29.632Z,25.47
2019-03-17T20:13:10.439Z,22.73
2019-03-17T20:15:27.747Z,19.87
2019-03-17T20:17:55.955Z,15.93
2019-03-17T20:20:24.155Z,27.03
2019-03-17T20:22:52.356Z,28.33
2019-03-17T20:25:20.548Z,19.63
2019-03-17T20:27:48.752Z,26.90
2019-03-17T20:30:19.034Z,20.63
2019-03-17T20:32:47.245Z,27.20
2019-03-17T20:35:15.434Z,17.77
2019-03-17T20:37:43.633Z,29.33
2019-03-17T20:40:15.091Z,22.97
2019-03-17T20:42:43.289Z,23.30
2019-03-17T20:45:12.537Z,26.23
2019-03-17T20:47:40.802Z,21.43
2019-03-17T20:50:12.004Z,22.23
2019-03-17T20:52:40.193Z,20.70
2019-03-17T20:55:09.739Z,20.67
2019-03-17T20:57:38.184Z,22.87
2019-03-17T21:00:16.971Z,27.63
2019-03-17T21:02:45.157Z,20.90
2019-03-17T21:05:13.378Z,26.77
2019-03-17T21:07:41.825Z,28.27
2019-03-17T21:10:16.313Z,26.83
2019-03-17T21:12:44.590Z,31.03
2019-03-17T21:15:18.759Z,20.37
2019-03-17T21:17:46.973Z,20.27
2019-03-17T21:20:21.290Z,20.83
2019-03-17T21:22:49.490Z,18.40
2019-03-17T21:25:18.341Z,14.53
2019-03-17T21:27:46.541Z,17.00
2019-03-17T21:30:29.710Z,14.77
2019-03-17T21:32:57.921Z,18.97
2019-03-17T21:35:26.117Z,22.67
2019-03-17T21:37:54.325Z,22.90
2019-03-17T21:40:22.516Z,14.10
2019-03-17T21:42:50.726Z,25.70
2019-03-17T21:45:18.925Z,22.23
2019-03-17T21:47:47.184Z,19.47
2019-03-17T21:50:19.273Z,20.13
2019-03-17T21:52:47.487Z,22.10
2019-03-17T21:55:15.687Z,21.03
2019-03-17T21:57:44.127Z,19.90
2019-03-17T22:00:21.437Z,18.30
2019-03-17T22:02:49.631Z,20.57
2019-03-17T22:05:17.836Z,24.73
2019-03-17T22:07:49.999Z,13.67
2019-03-17T22:10:22.085Z,15.47
2019-03-17T22:12:50.277Z,11.20
2019-03-17T22:15:18.637Z,11.13
2019-03-17T22:17:46.851Z,6.17
2019-03-17T22:20:15.380Z,7.63
2019-03-17T22:22:43.582Z,11.27
2019-03-17T22:25:13.868Z,5.83
2019-03-17T22:27:42.078Z,6.60
2019-03-17T22:30:17.294Z,3.07
2019-03-17T22:32:45.498Z,4.47
2019-03-17T22:35:13.689Z,9.37
2019-03-17T22:37:41.887Z,8.60
2019-03-17T22:40:15.198Z,5.17
2019-03-17T22:42:43.383Z,8.77
2019-03-17T22:45:15.434Z,14.37
2019-03-17T22:47:43.633Z,11.63
2019-03-17T22:50:16.517Z,11.10
2019-03-17T22:52:44.697Z,11.80
2019-03-17T22:55:12.884Z,9.63
2019-03-17T22:57:41.099Z,16.53
2019-03-17T23:00:33.365Z,5.90
2019-03-17T23:03:01.574Z,10.20
2019-03-17T23:05:29.763Z,10.00
2019-03-17T23:07:57.957Z,10.23
2019-03-17T23:10:26.164Z,11.87
2019-03-17T23:12:54.357Z,12.90
2019-03-17T23:15:22.567Z,12.33
2019-03-17T23:17:50.776Z,10.63
2019-03-17T23:20:18.957Z,15.90
2019-03-17T23:22:47.165Z,13.27
2019-03-17T23:25:15.357Z,20.77
2019-03-17T23:27:43.573Z,15.90
2019-03-17T23:30:14.636Z,24.53
2019-03-17T23:32:42.832Z,25.10
2019-03-17T23:35:11.031Z,28.90
2019-03-17T23:37:39.220Z,17.37
2019-03-17T23:40:09.893Z,22.53
2019-03-17T23:42:38.128Z,18.40
2019-03-17T23:45:08.274Z,22.43
2019-03-17T23:47:36.468Z,19.90
2019-03-17T23:50:07.164Z,17.30
2019-03-17T23:52:35.360Z,18.10
2019-03-17T23:55:04.021Z,19.10
2019-03-17T23:57:33.516Z,18.53
